Flight Track Log - Related Links

Times and Time Zones

All times are in EDT time to prevent confusion due to time zone crossing. See the SWA1096 flight status page for this flight to view local times or setup timezone preferences in your user account.

Time Position Orientation Groundspeed Altitude Reporting Facility
EDT Latitude Longitude Course Direction KTS MPH feet Rate Location/Type
Sun 11:00:06 AM 40.7758 -111.9983 202° Southwest 160 184 4,900  Level Salt Lake Center
Sun 11:00:37 AM 40.7619 -112.0058 202° Southwest 159 183 5,600 1,891 Climbing Salt Lake Center
Sun 11:01:38 AM 40.7756 -112.0914 282° West 233 268 7,800 2,585 Climbing Salt Lake Center
Sun 11:02:40 AM 40.8417 -112.1164 344° North 275 316 10,900 3,073 Climbing Salt Lake Center
Sun 11:03:41 AM 40.8881 -112.0242 56° Northeast 312 359 14,100 2,656 Climbing Salt Lake Center
Sun 11:04:42 AM 40.9275 -111.9111 65° Northeast 358 412 16,300 2,341 Climbing Salt Lake Center
Sun 11:05:44 AM 40.9714 -111.7875 65° Northeast 387 445 18,900 2,585 Climbing Salt Lake Center
Sun 11:06:45 AM 41.0158 -111.6572 66° East 402 463 21,600 2,754 Climbing Salt Lake Center
Sun 11:07:46 AM 41.0411 -111.4725 80° East 437 503 24,500 2,537 Climbing Salt Lake Center
Sun 11:08:48 AM 41.0556 -111.3106 83° East 444 511 26,800 1,951 Climbing Salt Lake Center
Sun 11:09:49 AM 41.0692 -111.1422 84° East 459 528 28,500 1,707 Climbing Salt Lake Center
Sun 11:10:51 AM 41.0847 -110.9678 83° East 478 550 30,300 1,659 Climbing Salt Lake Center
Sun 11:11:52 AM 41.0975 -110.7894 85° East 487 560 31,900 1,707 Climbing Salt Lake Center
Sun 11:12:54 AM 41.1131 -110.5872 84° East 491 565 33,800 1,512 Climbing Salt Lake Center
Sun 11:13:55 AM 41.1264 -110.4114 84° East 499 574 35,000 1,122 Climbing Salt Lake Center
Sun 11:14:57 AM 41.1397 -110.2331 84° East 507 583 36,100 1,415 Climbing Salt Lake Center
Sun 11:15:58 AM 41.1539 -110.0236 85° East 511 588 37,900 1,415 Climbing Salt Lake Center
Sun 11:17:00 AM 41.1661 -109.8506 85° East 499 574 39,000 537 Climbing Salt Lake Center
Sun 11:18:01 AM 41.1797 -109.6514 85° East 489 563 39,000  Level Salt Lake Center
Sun 11:19:03 AM 41.1914 -109.4800 85° East 489 563 39,000  Level Salt Lake Center
Sun 11:20:04 AM 41.2044 -109.2800 85° East 492 566 39,000  Level Salt Lake Center
Sun 11:21:06 AM 41.2150 -109.1075 85° East 495 570 39,000  Level Salt Lake Center
Sun 11:22:08 AM 41.2278 -108.9097 85° East 489 563 39,000  Level Salt Lake Center
Sun 11:23:09 AM 41.2375 -108.7397 86° East 487 560 39,000  Level Salt Lake Center
Sun 11:23:47 AM 41.2439 -108.6233 86° East 490 564 39,000  Level Denver Center
Sun 11:24:49 AM 41.2550 -108.4225 86° East 491 565 39,000  Level Denver Center
Sun 11:25:51 AM 41.2636 -108.2500 86° East 490 564 39,000  Level Denver Center
Sun 11:26:53 AM 41.2756 -108.0475 85° East 493 567 39,000  Level Denver Center
Sun 11:27:16 AM 41.2781 -107.9903 87° East 497 572 39,000  Level Salt Lake Center
Sun 11:27:55 AM 41.2842 -107.8725 86° East 497 572 39,000  Level Denver Center
Sun 11:28:57 AM 41.2939 -107.6725 86° East 487 560 39,000  Level Denver Center
Sun 11:29:59 AM 41.3033 -107.4992 86° East 491 565 39,000  Level Denver Center
Sun 11:31:01 AM 41.3103 -107.3242 87° East 494 568 39,000  Level Denver Center
Sun 11:32:03 AM 41.3211 -107.1211 86° East 495 570 39,000  Level Denver Center
Sun 11:33:05 AM 41.3272 -106.9461 87° East 495 570 39,000  Level Denver Center
Sun 11:34:07 AM 41.3364 -106.7428 86° East 494 568 39,000  Level Denver Center
Sun 11:35:09 AM 41.3442 -106.5686 87° East 493 567 39,000  Level Denver Center
Sun 11:36:11 AM 41.3517 -106.3839 87° East 493 567 39,000  Level Denver Center
Sun 11:37:12 AM 41.3592 -106.1822 87° East 491 565 39,000  Level Denver Center
Sun 11:38:14 AM 41.3647 -106.0089 87° East 491 565 39,000  Level Denver Center
Sun 11:39:16 AM 41.3711 -105.8047 88° East 494 568 39,000  Level Denver Center
Sun 11:40:18 AM 41.3758 -105.6308 88° East 493 567 39,000  Level Denver Center
Sun 11:41:20 AM 41.3828 -105.4294 87° East 490 564 39,000  Level Denver Center
Sun 11:42:22 AM 41.3872 -105.2586 88° East 486 559 39,000  Level Denver Center
Sun 11:43:24 AM 41.3928 -105.0586 88° East 485 558 39,000  Level Denver Center
Sun 11:44:26 AM 41.3967 -104.8869 88° East 486 559 39,000  Level Denver Center
Sun 11:45:28 AM 41.4017 -104.6919 88° East 477 549 39,000  Level Denver Center
Sun 11:46:30 AM 41.4061 -104.5214 88° East 481 554 39,000  Level Denver Center
Sun 11:47:32 AM 41.4108 -104.3203 88° East 489 563 39,000  Level Denver Center
Sun 11:48:33 AM 41.4125 -104.1481 89° East 489 563 39,000  Level Denver Center
Sun 11:49:35 AM 41.4169 -103.9767 88° East 486 559 39,000  Level Denver Center
Sun 11:50:37 AM 41.4203 -103.7753 89° East 491 565 39,000  Level Denver Center
Sun 11:51:39 AM 41.4222 -103.6033 89° East 488 562 39,000  Level Denver Center
Sun 11:52:41 AM 41.4233 -103.4050 90° East 483 556 39,000  Level Denver Center
Sun 11:53:43 AM 41.4267 -103.2336 88° East 484 557 39,000  Level Denver Center
Sun 11:54:45 AM 41.4286 -103.0339 89° East 483 556 39,000  Level Denver Center
Sun 11:55:47 AM 41.4300 -102.8619 89° East 485 558 39,000  Level Denver Center
Sun 11:56:49 AM 41.4314 -102.6625 89° East 484 557 39,000  Level Denver Center
Sun 11:57:51 AM 41.4319 -102.4947 90° East 476 548 39,000  Level Denver Center
Sun 11:58:53 AM 41.4328 -102.2981 90° East 475 547 39,000  Level Denver Center
Sun 11:59:55 AM 41.4325 -102.1297 90° East 475 547 39,000  Level Denver Center
Sun 12:00:57 PM 41.4331 -101.9303 90° East 480 552 39,000  Level Denver Center
Sun 12:01:59 PM 41.4336 -101.7583 90° East 485 558 39,000  Level Denver Center
Sun 12:03:01 PM 41.4328 -101.5842 90° East 490 564 39,000  Level Denver Center
Sun 12:04:03 PM 41.4317 -101.3811 90° East 490 564 39,000  Level Denver Center
Sun 12:05:05 PM 41.4303 -101.2067 91° East 490 564 39,000  Level Denver Center
Sun 12:06:07 PM 41.4292 -101.0044 90° East 487 560 39,000  Level Denver Center
Sun 12:07:09 PM 41.4269 -100.8319 91° East 485 558 39,000  Level Denver Center
Sun 12:08:11 PM 41.4256 -100.6306 90° East 485 558 39,000  Level Denver Center
Sun 12:09:13 PM 41.4228 -100.4569 91° East 487 560 39,000  Level Denver Center
Sun 12:10:15 PM 41.4194 -100.2553 91° East 485 558 39,000  Level Denver Center
Sun 12:11:17 PM 41.4172 -100.0828 91° East 486 559 39,000  Level Denver Center
Sun 12:12:19 PM 41.4144 -99.9086 91° East 488 562 39,000  Level Denver Center
Sun 12:13:21 PM 41.4111 -99.7008 91° East 486 559 39,000  Level Denver Center
Sun 12:14:23 PM 41.4069 -99.5214 92° East 484 557 39,000  Level Denver Center
Sun 12:15:26 PM 41.4033 -99.3425 91° East 483 556 39,000  Level Denver Center
Sun 12:16:40 PM 41.3981 -99.1619 92° East 484 557 39,000  Level Denver Center
Sun 12:17:36 PM 41.3931 -98.9694 92° East 482 555 39,000  Level Minneapolis Center
Sun 12:18:37 PM 41.3881 -98.7903 92° East 484 557 39,000  Level Minneapolis Center
Sun 12:19:39 PM 41.3828 -98.6119 92° East 483 556 39,000  Level Minneapolis Center
Sun 12:20:40 PM 41.3772 -98.4011 92° East 486 559 39,000  Level Minneapolis Center
Sun 12:21:41 PM 41.3783 -98.2214 89° East 485 558 39,000  Level Minneapolis Center
Sun 12:22:43 PM 41.3853 -98.0403 87° East 482 555 39,000  Level Minneapolis Center
Sun 12:23:44 PM 41.3903 -97.8608 88° East 484 557 39,000  Level Minneapolis Center
Sun 12:24:45 PM 41.3961 -97.6828 87° East 484 557 39,000  Level Minneapolis Center
Sun 12:25:47 PM 41.4008 -97.5025 88° East 486 559 39,000  Level Minneapolis Center
Sun 12:26:48 PM 41.4053 -97.3236 88° East 486 559 39,000  Level Minneapolis Center
Sun 12:27:50 PM 41.4086 -97.1433 89° East 486 559 39,000  Level Minneapolis Center
Sun 12:28:51 PM 41.4139 -96.9636 88° East 486 559 39,000  Level Minneapolis Center
Sun 12:29:52 PM 41.4178 -96.7850 88° East 485 558 39,000  Level Minneapolis Center
Sun 12:30:54 PM 41.4225 -96.5714 88° East 482 555 39,000  Level Minneapolis Center
Sun 12:31:55 PM 41.4256 -96.3953 89° East 477 549 39,000  Level Minneapolis Center
Sun 12:32:57 PM 41.4269 -96.2178 89° East 480 552 39,000  Level Minneapolis Center
Sun 12:33:58 PM 41.4292 -96.0422 89° East 474 545 39,000  Level Minneapolis Center
Sun 12:35:00 PM 41.4317 -95.8644 89° East 477 549 39,000  Level Minneapolis Center
Sun 12:36:02 PM 41.4339 -95.6864 89° East 480 552 39,000  Level Minneapolis Center
Sun 12:37:03 PM 41.4347 -95.4950 90° East 477 549 39,000  Level Minneapolis Center
Sun 12:38:05 PM 41.4367 -95.3181 89° East 477 549 39,000  Level Minneapolis Center
Sun 12:39:06 PM 41.4386 -95.1397 89° East 481 554 39,000  Level Minneapolis Center
Sun 12:40:08 PM 41.4389 -94.9611 90° East 482 555 39,000  Level Minneapolis Center
Sun 12:41:09 PM 41.4394 -94.7822 90° East 482 555 39,000  Level Minneapolis Center
Sun 12:42:11 PM 41.4394 -94.6044 90° East 480 552 39,000  Level Minneapolis Center
Sun 12:43:13 PM 41.4383 -94.3908 90° East 480 552 39,000  Level Minneapolis Center
Sun 12:44:14 PM 41.4397 -94.2150 89° East 476 548 39,000  Level Minneapolis Center
Sun 12:45:16 PM 41.4372 -94.0575 91° East 474 545 39,000  Level Minneapolis Center
Sun 12:46:17 PM 41.4364 -93.8825 90° East 474 545 39,000  Level Minneapolis Center
Sun 12:47:19 PM 41.4261 -93.6731 94° East 474 545 39,000  Level Minneapolis Center
Sun 12:48:33 PM 41.4147 -93.4636 94° East 475 547 39,000  Level Minneapolis Center
Sun 12:49:34 PM 41.4058 -93.2886 94° East 476 548 39,000  Level Minneapolis Center
Sun 12:50:36 PM 41.3953 -93.1136 95° East 476 548 39,000  Level Minneapolis Center
Sun 12:51:38 PM 41.3856 -92.9397 94° East 475 547 39,000  Level Minneapolis Center
Sun 12:52:39 PM 41.3756 -92.7656 94° East 473 544 39,000  Level Minneapolis Center
Sun 12:53:41 PM 41.3653 -92.5936 94° East 471 542 39,000  Level Minneapolis Center
Sun 12:54:15 PM 41.3589 -92.4872 95° East 473 544 39,000  Level Chicago Center
Sun 12:55:17 PM 41.3469 -92.3036 95° East 475 547 39,000  Level Chicago Center
Sun 12:56:19 PM 41.3350 -92.1311 95° East 474 545 39,000  Level Chicago Center
Sun 12:57:21 PM 41.3214 -91.9250 95° East 473 544 39,000  Level Chicago Center
Sun 12:58:23 PM 41.3108 -91.7525 95° East 473 544 39,000  Level Chicago Center
Sun 12:59:25 PM 41.2978 -91.5808 96° East 473 544 39,000  Level Chicago Center
Sun 01:00:26 PM 41.2861 -91.4097 95° East 469 540 39,000  Level Chicago Center
Sun 01:01:28 PM 41.2717 -91.2164 96° East 473 544 39,000  Level Chicago Center
Sun 01:02:30 PM 41.2578 -91.0425 96° East 473 544 39,000  Level Chicago Center
Sun 01:03:32 PM 41.2444 -90.8694 96° East 472 543 39,000  Level Chicago Center
Sun 01:04:34 PM 41.2319 -90.6958 95° East 472 543 39,000  Level Chicago Center
Sun 01:05:36 PM 41.2197 -90.5242 95° East 468 539 39,000  Level Chicago Center
Sun 01:06:38 PM 41.2047 -90.3522 97° East 469 540 39,000  Level Chicago Center
Sun 01:07:39 PM 41.1881 -90.1475 96° East 465 535 39,000  Level Chicago Center
Sun 01:08:41 PM 41.1733 -89.9739 96° East 469 540 39,000  Level Chicago Center
Sun 01:09:43 PM 41.1589 -89.8017 96° East 469 540 39,000  Level Chicago Center
Sun 01:10:45 PM 41.1433 -89.6294 97° East 469 540 39,000  Level Chicago Center
Sun 01:11:47 PM 41.1286 -89.4581 96° East 465 535 39,000  Level Chicago Center
Sun 01:12:49 PM 41.1125 -89.2900 97° East 459 528 39,000  Level Chicago Center
Sun 01:13:51 PM 41.0972 -89.1250 97° East 464 534 39,000  Level Chicago Center
Sun 01:14:52 PM 41.0792 -88.9219 97° East 467 537 39,000  Level Chicago Center
Sun 01:15:54 PM 41.0625 -88.7539 97° East 464 534 39,000  Level Chicago Center
Sun 01:16:56 PM 41.0464 -88.5856 97° East 464 534 39,000  Level Chicago Center
Sun 01:17:58 PM 41.0306 -88.4147 97° East 470 541 39,000  Level Chicago Center
Sun 01:19:00 PM 41.0133 -88.2444 98° East 472 543 39,000  Level Chicago Center
Sun 01:20:02 PM 40.9925 -88.0386 98° East 477 549 39,000  Level Chicago Center
Sun 01:21:04 PM 40.9756 -87.8681 97° East 475 547 39,000  Level Chicago Center
Sun 01:22:05 PM 40.9578 -87.6986 98° East 471 542 39,000  Level Chicago Center
Sun 01:23:07 PM 40.9403 -87.5286 98° East 471 542 39,000  Level Chicago Center
Sun 01:24:09 PM 40.9228 -87.3608 98° East 468 539 39,000  Level Chicago Center
Sun 01:25:11 PM 40.9003 -87.1575 98° East 470 541 39,000  Level Chicago Center
Sun 01:26:13 PM 40.8819 -86.9894 98° East 470 541 39,000  Level Chicago Center
Sun 01:27:15 PM 40.8625 -86.8214 99° East 467 537 39,000  Level Chicago Center
Sun 01:28:17 PM 40.8397 -86.6397 99° East 470 541 39,000  Level Chicago Center
Sun 01:29:19 PM 40.8206 -86.4689 98° East 473 544 39,000  Level Chicago Center
Sun 01:30:21 PM 40.8011 -86.3003 99° East 469 540 39,000  Level Chicago Center
Sun 01:31:23 PM 40.7808 -86.1300 99° East 472 543 39,000  Level Chicago Center
Sun 01:32:25 PM 40.7597 -85.9594 99° East 474 545 39,000  Level Chicago Center
Sun 01:33:27 PM 40.7347 -85.7578 99° East 470 541 39,000  Level Chicago Center
Sun 01:34:29 PM 40.7133 -85.5886 99° East 470 541 39,000  Level Chicago Center
Sun 01:35:31 PM 40.6919 -85.4200 99° East 471 542 39,000  Level Chicago Center
Sun 01:36:33 PM 40.6708 -85.2514 99° East 471 542 39,000  Level Chicago Center
Sun 01:37:35 PM 40.6483 -85.0808 100° East 473 544 39,000  Level Chicago Center
Sun 01:38:37 PM 40.6222 -84.8761 99° East 474 545 39,000 -70 Level Chicago Center
Sun 01:39:01 PM 40.6142 -84.8036 98° East 476 548 38,900  Descending Indianapolis Center
Sun 01:40:03 PM 40.5911 -84.6325 100° East 471 542 39,000  Climbing Indianapolis Center
Sun 01:41:04 PM 40.5697 -84.4608 99° East 471 542 38,900 -49 Descending Indianapolis Center
Sun 01:42:06 PM 40.5458 -84.2906 100° East 468 539 38,900 48 Level Indianapolis Center
Sun 01:43:08 PM 40.5228 -84.1183 100° East 473 544 39,000 48 Climbing Indianapolis Center
Sun 01:44:10 PM 40.4986 -83.9475 100° East 472 543 39,000  Level Indianapolis Center
Sun 01:45:11 PM 40.4739 -83.7769 101° East 471 542 39,000  Level Indianapolis Center
Sun 01:46:13 PM 40.4500 -83.6058 100° East 471 542 39,000 -48 Level Indianapolis Center
Sun 01:47:15 PM 40.4253 -83.4364 101° East 467 537 38,900  Descending Indianapolis Center
Sun 01:48:17 PM 40.4006 -83.2653 101° East 470 541 39,000  Climbing Indianapolis Center
Sun 01:49:18 PM 40.3717 -83.0669 101° East 470 541 38,900  Descending Indianapolis Center
Sun 01:50:20 PM 40.3475 -82.8969 101° East 470 541 39,000 48 Climbing Indianapolis Center
Sun 01:51:22 PM 40.3244 -82.7492 102° East 471 542 39,000  Level Indianapolis Center
Sun 01:52:23 PM 40.2956 -82.5531 101° East 470 541 39,000  Level Indianapolis Center
Sun 01:53:25 PM 40.2689 -82.3836 102° East 472 543 39,000  Level Indianapolis Center
Sun 01:54:27 PM 40.2431 -82.2144 101° East 473 544 39,000 -48 Level Indianapolis Center
Sun 01:55:29 PM 40.2178 -82.0486 101° East 470 541 38,900  Descending Indianapolis Center
Sun 01:56:30 PM 40.1919 -81.8797 101° East 470 541 39,000 49 Climbing Indianapolis Center
Sun 01:57:32 PM 40.1633 -81.7106 102° East 470 541 39,000  Level Indianapolis Center
Sun 01:58:04 PM 40.1481 -81.6017 100° East 466 536 39,000  Level Cleveland Center
Sun 01:59:04 PM 40.1203 -81.4300 102° East 471 542 39,000  Level Cleveland Center
Sun 01:59:36 PM 40.1069 -81.3675 106° East 480 552 39,000  Level Indianapolis Center
Sun 02:00:38 PM 40.0747 -81.1689 102° East 478 550 39,000  Level Indianapolis Center
Sun 02:01:04 PM 40.0639 -81.0903 100° East 471 542 39,000 -279 Level Cleveland Center
Sun 02:02:04 PM 40.0375 -80.9275 102° East 471 542 38,600 -1,000 Descending Cleveland Center
Sun 02:03:04 PM 40.0086 -80.7647 103° East 466 536 37,000 -800 Descending Cleveland Center
Sun 02:04:04 PM 39.9775 -80.5994 104° East 466 536 37,000  Level Cleveland Center
Sun 02:05:04 PM 39.9419 -80.4342 106° East 466 536 37,000  Level Cleveland Center
Sun 02:06:04 PM 39.9103 -80.2719 104° East 471 542 37,000 -567 Level Cleveland Center
Sun 02:08:04 PM 39.8422 -79.9450 105° East 471 542 35,300 -867 Descending Cleveland Center
Sun 02:09:04 PM 39.8081 -79.7858 106° East 465 535 34,400 -1,492 Descending Cleveland Center
Sun 02:11:05 PM 39.7469 -79.4753 104° East 450 518 30,800 -1,989 Descending Washington Center
Sun 02:12:05 PM 39.7106 -79.3114 106° East 463 533 28,400 -2,500 Descending Washington Center
Sun 02:13:05 PM 39.6778 -79.1506 105° East 463 533 25,800 -1,700 Descending Washington Center
Sun 02:14:05 PM 39.6428 -78.9925 106° East 458 527 25,000 -400 Descending Washington Center
Sun 02:15:05 PM 39.6039 -78.8156 106° East 464 534 25,000 -600 Level Washington Center
Sun 02:16:05 PM 39.5683 -78.6578 106° East 464 534 23,800 -1,850 Descending Washington Center
Sun 02:17:05 PM 39.5347 -78.5056 106° East 453 521 21,300 -2,400 Descending Washington Center
Sun 02:18:05 PM 39.5028 -78.3619 106° East 433 498 19,000 -2,150 Descending Washington Center
Sun 02:19:05 PM 39.4703 -78.2261 107° East 413 475 17,000 -1,900 Descending Washington Center
Sun 02:20:05 PM 39.4436 -78.1069 106° East 399 459 15,200 -1,100 Descending Washington Center
Sun 02:21:05 PM 39.4317 -77.9750 97° East 380 437 14,800 -1,600 Descending Washington Center
Sun 02:22:05 PM 39.4364 -77.8433 87° East 367 422 12,000 -1,900 Descending Washington Center
Sun 02:23:05 PM 39.4386 -77.7144 89° East 367 422 11,000 -500 Descending Washington Center
Sun 02:24:05 PM 39.4408 -77.5856 89° East 362 417 11,000  Level Washington Center
Sun 02:25:05 PM 39.4408 -77.4567 90° East 362 417 11,000  Level Washington Center
Sun 02:25:54 PM 39.4500 -77.3333 84° East 360 414 11,000  Level Potomac TRACON
Sun 02:26:54 PM 39.4667 -77.2167 79° East 319 367 11,000 -350 Level Potomac TRACON
Sun 02:27:54 PM 39.4667 -77.1167 90° East 309 356 10,300 -950 Descending Potomac TRACON
Sun 02:28:54 PM 39.4667 -77.0000 90° East 290 334 9,100 -1,289 Descending Potomac TRACON
Sun 02:29:55 PM 39.4667 -76.9000 90° East 278 320 7,700 -1,339 Descending Potomac TRACON
Sun 02:30:55 PM 39.4667 -76.8000 90° East 271 312 6,400 -1,263 Descending Potomac TRACON
Sun 02:31:49 PM 39.4667 -76.7167 90° East 260 299 5,300 -730 Descending Potomac TRACON
Sun 02:32:50 PM 39.4333 -76.6500 123° Southeast 256 295 5,000 -397 Descending Potomac TRACON
Sun 02:33:50 PM 39.3833 -76.5833 134° Southeast 251 289 4,500 -500 Descending Potomac TRACON
Sun 02:34:50 PM 39.3333 -76.5167 134° Southeast 250 288 4,000 -248 Descending Potomac TRACON
Sun 02:35:51 PM 39.2833 -76.4667 142° Southeast 243 280 4,000  Level Potomac TRACON
Sun 02:36:51 PM 39.2333 -76.4500 166° South 216 249 4,000  Level Potomac TRACON
Sun 02:37:52 PM 39.1667 -76.4333 169° South 217 250 4,000 -347 Level Potomac TRACON
Sun 02:38:52 PM 39.1167 -76.4667 207° Southwest 213 245 3,300 -750 Descending Potomac TRACON
Sun 02:39:52 PM 39.0833 -76.5167 229° Southwest 208 239 2,500 -645 Descending Potomac TRACON
Sun 02:40:53 PM 39.0667 -76.5667 247° West 191 220 2,000 -298 Descending Potomac TRACON
Sun 02:41:53 PM 39.1000 -76.6000 322° Northwest 155 178 1,900 -100 Descending Potomac TRACON

Login

Don't have an account? Register now (free) for customized features, flight alerts, and more!